Crater Lake, Oregon
Current Conditions -  °F | °C
As of 1:53 PM on Monday 22 Dec 2014 (Local Time) from KLMT Reporting Station
Overcast Overcast  
Wind Chill: 52°   Ceiling: 2700
Heat Index: 52°   Visibility: 10mi
Dew Point: 43°   Wind: 9mph
Humidity: 71%   Direction: 260°W
Pressure: 30.28"   Gusts: NA
Location:  42.58°N, 121.86°W
Report Text: KLMT 222153Z 26008KT 10SM BKN027 OVC034 11/06 A3028 RMK AO2 SLP240 T01110061
Loading
Personal Weather Stations






























Interactive Weather Map New forecast layout! Learn more

10-Day Weather Forecast

Advertisements
Track Severe Weather on mobile